createdAt,value
2018-03-14T00:01:43.759Z,84.77
2018-03-14T00:04:13.266Z,84.77
2018-03-14T00:06:43.116Z,84.82
2018-03-14T00:09:12.731Z,84.73
2018-03-14T00:11:41.942Z,84.78
2018-03-14T00:14:11.217Z,84.74
2018-03-14T00:16:40.484Z,84.75
2018-03-14T00:19:09.583Z,84.79
2018-03-14T00:21:38.855Z,84.88
2018-03-14T00:24:07.928Z,84.84
2018-03-14T00:26:37.598Z,84.84
2018-03-14T00:29:06.649Z,84.82
2018-03-14T00:31:36.205Z,84.75
2018-03-14T00:34:05.982Z,84.86
2018-03-14T00:36:36.306Z,84.95
2018-03-14T00:39:07.210Z,84.97
2018-03-14T00:41:36.555Z,84.82
2018-03-14T00:44:05.605Z,84.85
2018-03-14T00:46:35.260Z,84.96
2018-03-14T00:49:05.317Z,84.95
2018-03-14T00:51:35.745Z,85.00
2018-03-14T00:54:04.813Z,84.99
2018-03-14T00:56:34.178Z,84.99
2018-03-14T00:59:04.152Z,85.03
2018-03-14T01:01:33.209Z,85.07
2018-03-14T01:04:02.261Z,84.94
2018-03-14T01:06:31.296Z,84.97
2018-03-14T01:09:00.334Z,84.91
2018-03-14T01:11:30.587Z,84.91
2018-03-14T01:13:59.654Z,84.93
2018-03-14T01:16:29.584Z,84.95
2018-03-14T01:18:59.777Z,84.98
2018-03-14T01:21:28.801Z,85.04
2018-03-14T01:23:59.131Z,85.14
2018-03-14T01:26:28.291Z,85.29
2018-03-14T01:28:57.342Z,85.46
2018-03-14T01:31:26.820Z,85.58
2018-03-14T01:33:56.384Z,85.65
2018-03-14T01:36:26.382Z,85.67
2018-03-14T01:38:55.959Z,85.76
2018-03-14T01:41:25.127Z,85.80
2018-03-14T01:43:55.306Z,85.70
2018-03-14T01:46:24.799Z,85.71
2018-03-14T01:48:53.841Z,85.71
2018-03-14T01:51:23.358Z,85.75
2018-03-14T01:53:54.243Z,85.77
2018-03-14T01:56:23.987Z,85.77
2018-03-14T01:58:53.892Z,85.71
2018-03-14T02:01:23.175Z,85.72
2018-03-14T02:03:52.568Z,85.74
2018-03-14T02:06:22.052Z,85.59
2018-03-14T02:08:51.560Z,85.58
2018-03-14T02:11:21.054Z,85.62
2018-03-14T02:13:51.292Z,85.61
2018-03-14T02:16:21.039Z,85.77
2018-03-14T02:18:51.202Z,85.67
2018-03-14T02:21:21.364Z,85.62
2018-03-14T02:23:50.388Z,85.68
2018-03-14T02:26:19.530Z,85.72
2018-03-14T02:28:49.979Z,85.75
2018-03-14T02:31:19.292Z,85.80
2018-03-14T02:33:49.724Z,85.95
2018-03-14T02:36:31.556Z,85.94
2018-03-14T02:39:01.229Z,85.93
2018-03-14T02:41:30.325Z,86.07
2018-03-14T02:44:00.840Z,86.10
2018-03-14T02:46:30.694Z,86.10
2018-03-14T02:48:59.884Z,86.08
2018-03-14T02:51:29.679Z,86.11
2018-03-14T02:53:58.996Z,86.19
2018-03-14T02:56:28.016Z,86.19
2018-03-14T02:58:57.905Z,86.04
2018-03-14T03:01:27.206Z,85.96
2018-03-14T03:03:56.241Z,85.97
2018-03-14T03:06:25.913Z,85.94
2018-03-14T03:08:56.703Z,86.04
2018-03-14T03:11:26.158Z,86.06
2018-03-14T03:13:56.791Z,86.09
2018-03-14T03:16:27.082Z,85.99
2018-03-14T03:18:56.177Z,85.60
2018-03-14T03:21:25.702Z,85.37
2018-03-14T03:23:54.728Z,85.25
2018-03-14T03:26:24.194Z,85.14
2018-03-14T03:28:54.463Z,85.14
2018-03-14T03:31:23.481Z,85.21
2018-03-14T03:33:53.571Z,85.27
2018-03-14T03:36:23.372Z,85.21
2018-03-14T03:38:52.578Z,85.28
2018-03-14T03:41:22.589Z,85.42
2018-03-14T03:43:51.924Z,85.48
2018-03-14T03:46:21.832Z,85.51
2018-03-14T03:48:50.848Z,85.45
2018-03-14T03:51:20.076Z,85.25
2018-03-14T03:53:49.220Z,85.00
2018-03-14T03:56:18.233Z,84.97
2018-03-14T03:58:47.369Z,84.77
2018-03-14T04:01:17.009Z,84.66
2018-03-14T04:03:47.573Z,84.54
2018-03-14T04:06:17.697Z,84.47
2018-03-14T04:08:47.807Z,84.45
2018-03-14T04:11:16.841Z,84.42
2018-03-14T04:13:47.490Z,84.33
2018-03-14T04:16:16.585Z,84.38
2018-03-14T04:18:46.115Z,84.42
2018-03-14T04:21:15.740Z,84.37
2018-03-14T04:23:45.027Z,84.36
2018-03-14T04:26:14.729Z,84.39
2018-03-14T04:28:44.451Z,84.42
2018-03-14T04:31:13.524Z,84.41
2018-03-14T04:33:42.953Z,84.45
2018-03-14T04:36:12.030Z,84.41
2018-03-14T04:38:41.107Z,84.41
2018-03-14T04:41:11.643Z,84.52
2018-03-14T04:43:40.765Z,84.46
2018-03-14T04:46:10.837Z,84.38
2018-03-14T04:48:39.967Z,84.45
2018-03-14T04:51:10.657Z,84.54
2018-03-14T04:53:39.785Z,84.42
2018-03-14T04:56:09.594Z,84.33
2018-03-14T04:58:38.608Z,84.39
2018-03-14T05:01:08.502Z,84.36
2018-03-14T05:03:37.907Z,84.33
2018-03-14T05:06:07.195Z,84.28
2018-03-14T05:08:37.668Z,84.23
2018-03-14T05:11:06.770Z,84.29
2018-03-14T05:13:36.035Z,84.28
2018-03-14T05:16:05.380Z,84.17
2018-03-14T05:18:34.397Z,84.19
2018-03-14T05:21:03.784Z,84.06
2018-03-14T05:23:32.800Z,84.13
2018-03-14T05:26:02.641Z,84.18
2018-03-14T05:28:31.710Z,84.37
2018-03-14T05:31:00.768Z,84.34
2018-03-14T05:33:30.189Z,84.44
2018-03-14T05:36:00.010Z,84.34
2018-03-14T05:38:29.073Z,84.34
2018-03-14T05:40:58.296Z,84.32
2018-03-14T05:43:28.296Z,84.34
2018-03-14T05:45:58.329Z,84.29
2018-03-14T05:48:27.394Z,84.24
2018-03-14T05:50:56.458Z,84.24
2018-03-14T05:53:26.467Z,84.33
2018-03-14T05:55:55.496Z,84.31
2018-03-14T05:58:24.617Z,84.25
2018-03-14T06:00:53.950Z,84.26
2018-03-14T06:03:23.445Z,84.34
2018-03-14T06:05:52.535Z,84.44
2018-03-14T06:08:22.086Z,84.31
2018-03-14T06:10:51.447Z,84.24
2018-03-14T06:13:21.401Z,84.23
2018-03-14T06:15:50.595Z,84.17
2018-03-14T06:18:20.428Z,84.14
2018-03-14T06:20:49.621Z,84.14
2018-03-14T06:23:19.655Z,84.15
2018-03-14T06:25:48.847Z,84.03
2018-03-14T06:28:18.758Z,83.89
2018-03-14T06:30:48.131Z,83.79
2018-03-14T06:33:18.475Z,83.84
2018-03-14T06:35:48.457Z,83.83
2018-03-14T06:38:17.897Z,83.62
2018-03-14T06:40:46.937Z,83.69
2018-03-14T06:43:16.036Z,83.73
2018-03-14T06:45:45.568Z,83.57
2018-03-14T06:48:15.700Z,83.41
2018-03-14T06:50:44.816Z,83.49
2018-03-14T06:53:13.856Z,83.46
2018-03-14T06:55:43.187Z,83.21
2018-03-14T06:58:12.221Z,83.36
2018-03-14T07:00:53.149Z,83.32
2018-03-14T07:03:33.826Z,83.11
2018-03-14T07:06:10.652Z,83.18
2018-03-14T07:08:39.709Z,83.29
2018-03-14T07:11:08.742Z,83.44
2018-03-14T07:13:38.345Z,83.55
2018-03-14T07:16:07.376Z,83.32
2018-03-14T07:18:36.850Z,83.31
2018-03-14T07:21:06.075Z,83.40
2018-03-14T07:23:35.494Z,83.42
2018-03-14T07:26:05.120Z,83.25
2018-03-14T07:28:35.492Z,83.27
2018-03-14T07:31:04.528Z,83.11
2018-03-14T07:33:33.820Z,83.16
2018-03-14T07:36:02.846Z,83.28
2018-03-14T07:38:31.889Z,83.08
2018-03-14T07:41:01.393Z,83.12
2018-03-14T07:43:32.191Z,83.17
2018-03-14T07:46:01.274Z,83.23
2018-03-14T07:48:31.410Z,83.30
2018-03-14T07:51:01.662Z,82.94
2018-03-14T07:53:30.973Z,83.34
2018-03-14T07:56:00.313Z,83.17
2018-03-14T07:58:29.728Z,83.00
2018-03-14T08:00:58.853Z,83.09
2018-03-14T08:03:28.043Z,83.16
2018-03-14T08:05:57.298Z,83.17
2018-03-14T08:08:26.328Z,83.05
2018-03-14T08:10:56.006Z,82.97
2018-03-14T08:13:26.134Z,82.84
2018-03-14T08:15:55.190Z,82.91
2018-03-14T08:18:25.126Z,82.82
2018-03-14T08:20:54.177Z,82.92
2018-03-14T08:23:23.512Z,83.04
2018-03-14T08:25:52.902Z,83.23
2018-03-14T08:28:23.085Z,83.20
2018-03-14T08:30:52.830Z,83.32
2018-03-14T08:33:21.926Z,83.48
2018-03-14T08:35:52.314Z,83.52
2018-03-14T08:38:22.195Z,83.66
2018-03-14T08:40:51.285Z,83.57
2018-03-14T08:43:21.200Z,83.65
2018-03-14T08:45:50.241Z,83.75
2018-03-14T08:48:20.949Z,83.87
2018-03-14T08:50:50.074Z,84.00
2018-03-14T08:53:23.865Z,83.92
2018-03-14T08:55:53.495Z,83.74
2018-03-14T08:58:23.120Z,83.69
2018-03-14T09:00:52.424Z,83.77
2018-03-14T09:03:22.868Z,83.61
2018-03-14T09:05:53.609Z,83.47
2018-03-14T09:08:22.936Z,83.54
2018-03-14T09:10:52.030Z,83.68
2018-03-14T09:13:22.059Z,83.57
2018-03-14T09:15:52.467Z,83.59
2018-03-14T09:18:21.962Z,83.57
2018-03-14T09:20:51.135Z,83.56
2018-03-14T09:23:20.401Z,83.68
2018-03-14T09:25:49.988Z,83.76
2018-03-14T09:28:19.643Z,83.69
2018-03-14T09:30:50.336Z,83.73
2018-03-14T09:33:19.456Z,83.74
2018-03-14T09:35:48.508Z,83.85
2018-03-14T09:38:18.272Z,84.06
2018-03-14T09:40:49.931Z,84.00
2018-03-14T09:43:19.481Z,83.91
2018-03-14T09:45:49.783Z,83.85
2018-03-14T09:48:20.076Z,83.63
2018-03-14T09:50:49.487Z,83.63
2018-03-14T09:53:18.887Z,83.65
2018-03-14T09:55:48.184Z,83.58
2018-03-14T09:58:17.581Z,83.63
2018-03-14T10:00:47.384Z,83.67
2018-03-14T10:03:16.439Z,83.59
2018-03-14T10:05:45.499Z,83.56
2018-03-14T10:08:15.067Z,83.48
2018-03-14T10:10:45.184Z,83.41
2018-03-14T10:13:14.524Z,83.56
2018-03-14T10:15:43.980Z,83.50
2018-03-14T10:18:13.066Z,83.40
2018-03-14T10:20:43.170Z,83.43
2018-03-14T10:23:13.235Z,83.26
2018-03-14T10:25:43.226Z,83.25
2018-03-14T10:28:12.193Z,83.32
2018-03-14T10:30:41.233Z,83.48
2018-03-14T10:33:10.272Z,83.36
2018-03-14T10:35:39.298Z,83.00
2018-03-14T10:38:08.901Z,82.75
2018-03-14T10:40:38.497Z,82.63
2018-03-14T10:43:08.369Z,82.49
2018-03-14T10:45:37.451Z,82.74
2018-03-14T10:48:07.693Z,82.62
2018-03-14T10:50:37.117Z,82.69
2018-03-14T10:53:07.200Z,82.59
2018-03-14T10:55:36.662Z,82.85
2018-03-14T10:58:05.950Z,82.70
2018-03-14T11:00:41.198Z,82.65
2018-03-14T11:06:12.281Z,82.14
2018-03-14T11:08:41.566Z,82.17
2018-03-14T11:11:10.906Z,82.23
2018-03-14T11:13:40.753Z,82.18
2018-03-14T11:16:10.451Z,82.02
2018-03-14T11:18:39.490Z,82.46
2018-03-14T11:21:10.357Z,82.20
2018-03-14T11:23:39.770Z,82.17
2018-03-14T11:26:09.241Z,82.21
2018-03-14T11:28:39.067Z,82.51
2018-03-14T11:31:08.520Z,82.52
2018-03-14T11:33:38.746Z,82.47
2018-03-14T11:36:08.390Z,82.37
2018-03-14T11:38:37.593Z,82.51
2018-03-14T11:41:06.736Z,82.08
2018-03-14T11:43:37.367Z,81.82
2018-03-14T11:46:08.048Z,81.88
2018-03-14T11:48:37.805Z,82.01
2018-03-14T11:51:07.706Z,82.00
2018-03-14T11:53:36.820Z,82.34
2018-03-14T11:56:05.866Z,82.36
2018-03-14T11:58:35.125Z,82.40
2018-03-14T12:01:04.254Z,82.35
2018-03-14T12:03:33.687Z,82.37
2018-03-14T12:06:03.197Z,82.02
2018-03-14T12:08:33.242Z,82.13
2018-03-14T12:11:03.751Z,82.09
2018-03-14T12:13:32.862Z,82.21
2018-03-14T12:16:01.908Z,81.84
2018-03-14T12:18:32.071Z,81.87
2018-03-14T12:21:01.701Z,81.89
2018-03-14T12:23:30.726Z,81.80
2018-03-14T12:25:59.766Z,81.87
2018-03-14T12:28:29.214Z,81.91
2018-03-14T12:30:59.499Z,82.06
2018-03-14T12:33:30.315Z,82.10
2018-03-14T12:35:59.602Z,81.78
2018-03-14T12:38:28.859Z,82.05
2018-03-14T12:41:00.139Z,81.83
2018-03-14T12:43:29.454Z,81.82
2018-03-14T12:45:59.083Z,81.76
2018-03-14T12:48:29.053Z,81.73
2018-03-14T12:50:59.595Z,81.56
2018-03-14T12:53:28.624Z,81.71
2018-03-14T12:55:58.142Z,81.75
2018-03-14T12:58:27.186Z,81.55
2018-03-14T13:00:56.285Z,81.26
2018-03-14T13:03:26.573Z,81.27
2018-03-14T13:05:56.470Z,81.40
2018-03-14T13:08:27.634Z,80.95
2018-03-14T13:10:57.170Z,80.81
2018-03-14T13:13:26.470Z,80.70
2018-03-14T13:15:55.918Z,80.81
2018-03-14T13:18:25.255Z,80.36
2018-03-14T13:20:54.555Z,80.42
2018-03-14T13:23:24.802Z,80.40
2018-03-14T13:25:54.067Z,80.30
2018-03-14T13:28:24.123Z,80.06
2018-03-14T13:30:53.655Z,79.84
2018-03-14T13:33:23.194Z,79.60
2018-03-14T13:35:52.260Z,79.45
2018-03-14T13:38:21.558Z,79.58
2018-03-14T13:40:51.098Z,79.48
2018-03-14T13:43:20.203Z,79.41
2018-03-14T13:45:49.249Z,79.38
2018-03-14T13:48:19.040Z,78.99
2018-03-14T13:50:48.432Z,78.33
2018-03-14T13:53:17.786Z,78.18
2018-03-14T13:55:47.544Z,78.29
2018-03-14T13:58:16.873Z,78.48
2018-03-14T14:00:46.082Z,78.44
2018-03-14T14:03:16.435Z,78.38
2018-03-14T14:08:26.466Z,77.57
2018-03-14T14:10:56.347Z,77.66
2018-03-14T14:13:28.398Z,77.71
2018-03-14T14:15:58.363Z,77.90
2018-03-14T14:18:28.164Z,77.69
2018-03-14T14:20:57.571Z,77.75
2018-03-14T14:23:26.631Z,77.76
2018-03-14T14:25:55.691Z,77.58
2018-03-14T14:28:25.067Z,77.60
2018-03-14T14:30:54.455Z,77.62
2018-03-14T14:33:23.491Z,77.63
2018-03-14T14:35:53.394Z,77.79
2018-03-14T14:38:22.433Z,77.95
2018-03-14T14:40:55.131Z,78.07
2018-03-14T14:43:24.569Z,77.92
2018-03-14T14:45:53.652Z,77.92
2018-03-14T14:48:22.709Z,78.15
2018-03-14T14:50:52.171Z,78.07
2018-03-14T14:53:21.567Z,77.97
2018-03-14T14:55:51.490Z,78.22
2018-03-14T14:58:20.526Z,78.27
2018-03-14T15:00:49.573Z,78.17
2018-03-14T15:03:18.779Z,78.26
2018-03-14T15:05:47.821Z,78.33
2018-03-14T15:08:17.132Z,78.08
2018-03-14T15:10:46.495Z,77.71
2018-03-14T15:13:15.538Z,77.69
2018-03-14T15:15:44.578Z,77.59
2018-03-14T15:18:13.658Z,77.54
2018-03-14T15:20:42.842Z,77.68
2018-03-14T15:23:12.247Z,77.68
2018-03-14T15:25:42.286Z,77.39
2018-03-14T15:28:11.705Z,77.24
2018-03-14T15:30:41.468Z,77.13
2018-03-14T15:33:10.859Z,76.98
2018-03-14T15:35:39.962Z,77.03
2018-03-14T15:38:09.397Z,76.85
2018-03-14T15:40:38.770Z,76.79
2018-03-14T15:43:09.294Z,77.14
2018-03-14T15:45:39.760Z,77.18
2018-03-14T15:48:09.203Z,77.11
2018-03-14T15:50:38.421Z,76.88
2018-03-14T15:53:07.460Z,76.75
2018-03-14T15:55:36.526Z,76.94
2018-03-14T15:58:05.581Z,77.00
2018-03-14T16:03:53.248Z,76.68
2018-03-14T16:12:34.126Z,76.54
2018-03-14T16:15:03.179Z,76.61
2018-03-14T16:17:32.276Z,76.61
2018-03-14T16:20:01.417Z,76.84
2018-03-14T16:22:30.476Z,76.65
2018-03-14T16:24:59.520Z,76.75
2018-03-14T16:27:28.951Z,76.79
2018-03-14T16:29:58.422Z,77.01
2018-03-14T16:32:27.827Z,76.98
2018-03-14T16:34:57.174Z,77.12
2018-03-14T16:37:26.224Z,77.19
2018-03-14T16:39:55.529Z,77.05
2018-03-14T16:42:24.611Z,76.81
2018-03-14T16:44:53.643Z,76.57
2018-03-14T16:47:22.947Z,76.65
2018-03-14T16:49:52.026Z,76.80
2018-03-14T16:52:21.049Z,76.63
2018-03-14T16:54:50.085Z,76.54
2018-03-14T16:57:19.129Z,76.29
2018-03-14T16:59:48.192Z,76.44
2018-03-14T17:02:17.231Z,76.66
2018-03-14T17:04:48.297Z,76.54
2018-03-14T17:07:17.425Z,76.57
2018-03-14T17:09:48.292Z,76.48
2018-03-14T17:12:17.389Z,76.34
2018-03-14T17:14:49.810Z,76.29
2018-03-14T17:17:18.887Z,76.15
2018-03-14T17:19:48.300Z,76.31
2018-03-14T17:22:17.454Z,76.14
2018-03-14T17:24:46.833Z,76.10
2018-03-14T17:27:15.933Z,76.08
2018-03-14T17:29:45.015Z,76.16
2018-03-14T17:32:14.062Z,76.18
2018-03-14T17:34:43.454Z,76.18
2018-03-14T17:37:12.509Z,76.04
2018-03-14T17:39:42.396Z,76.07
2018-03-14T17:42:11.434Z,76.14
2018-03-14T17:44:42.267Z,76.04
2018-03-14T17:47:11.642Z,76.07
2018-03-14T17:49:41.422Z,76.01
2018-03-14T17:52:10.721Z,75.88
2018-03-14T17:54:39.921Z,75.74
2018-03-14T17:57:09.240Z,75.66
2018-03-14T17:59:38.290Z,75.72
2018-03-14T18:02:07.339Z,75.61
2018-03-14T18:04:36.434Z,75.76
2018-03-14T18:07:05.768Z,75.76
2018-03-14T18:09:35.162Z,75.79
2018-03-14T18:12:05.434Z,75.99
2018-03-14T18:14:35.143Z,75.91
2018-03-14T18:17:04.924Z,75.83
2018-03-14T18:19:34.011Z,75.79
2018-03-14T18:22:03.247Z,75.82
2018-03-14T18:24:32.597Z,75.80
2018-03-14T18:27:02.526Z,75.73
2018-03-14T18:29:32.445Z,75.76
2018-03-14T18:32:02.058Z,75.71
2018-03-14T18:34:31.630Z,75.65
2018-03-14T18:37:01.153Z,75.50
2018-03-14T18:39:30.706Z,75.38
2018-03-14T18:41:59.754Z,75.41
2018-03-14T18:44:29.141Z,75.06
2018-03-14T18:46:58.179Z,74.75
2018-03-14T18:49:27.540Z,74.65
2018-03-14T18:51:56.574Z,74.43
2018-03-14T18:54:26.594Z,74.33
2018-03-14T18:56:55.655Z,74.26
2018-03-14T18:59:24.968Z,74.21
2018-03-14T19:01:53.995Z,74.25
2018-03-14T19:04:23.075Z,74.42
2018-03-14T19:06:52.376Z,74.34
2018-03-14T19:09:21.857Z,74.18
2018-03-14T19:11:50.940Z,74.20
2018-03-14T19:14:20.028Z,74.09
2018-03-14T19:16:49.081Z,74.01
2018-03-14T19:19:18.138Z,73.48
2018-03-14T19:21:47.954Z,73.43
2018-03-14T19:24:17.494Z,72.93
2018-03-14T19:26:46.782Z,72.83
2018-03-14T19:29:18.222Z,72.75
2018-03-14T19:31:48.098Z,72.81
2018-03-14T19:34:19.368Z,72.74
2018-03-14T19:36:48.726Z,72.59
2018-03-14T19:39:17.767Z,71.87
2018-03-14T19:41:46.817Z,71.84
2018-03-14T19:44:15.889Z,71.79
2018-03-14T19:46:48.539Z,71.77
2018-03-14T19:49:17.682Z,71.73
2018-03-14T19:51:46.750Z,71.76
2018-03-14T19:54:15.827Z,71.81
2018-03-14T19:56:45.198Z,71.97
2018-03-14T19:59:15.578Z,71.97
2018-03-14T20:01:44.718Z,71.96
2018-03-14T20:04:13.754Z,71.78
2018-03-14T20:06:43.143Z,71.38
2018-03-14T20:09:12.221Z,71.45
2018-03-14T20:11:42.398Z,71.57
2018-03-14T20:14:11.443Z,71.70
2018-03-14T20:16:40.667Z,70.99
2018-03-14T20:19:09.745Z,70.95
2018-03-14T20:21:38.783Z,71.01
2018-03-14T20:24:07.901Z,70.99
2018-03-14T20:26:36.983Z,70.75
2018-03-14T20:29:06.431Z,70.57
2018-03-14T20:31:35.492Z,70.14
2018-03-14T20:34:04.890Z,69.99
2018-03-14T20:36:33.921Z,70.05
2018-03-14T20:39:05.114Z,70.12
2018-03-14T20:41:34.144Z,70.46
2018-03-14T20:44:03.191Z,70.58
2018-03-14T20:46:32.233Z,70.67
2018-03-14T20:49:01.332Z,70.72
2018-03-14T20:51:30.436Z,70.76
2018-03-14T20:53:59.487Z,70.56
2018-03-14T20:56:28.846Z,70.55
2018-03-14T20:58:58.249Z,70.23
2018-03-14T21:01:27.557Z,69.96
2018-03-14T21:03:56.721Z,69.69
2018-03-14T21:06:25.768Z,70.04
2018-03-14T21:08:55.842Z,70.21
2018-03-14T21:11:24.992Z,70.11
2018-03-14T21:13:54.033Z,70.02
2018-03-14T21:16:23.271Z,70.03
2018-03-14T21:18:52.528Z,70.06
2018-03-14T21:21:21.592Z,70.31
2018-03-14T21:23:50.973Z,70.37
2018-03-14T21:26:20.562Z,70.75
2018-03-14T21:28:49.901Z,70.51
2018-03-14T21:31:18.956Z,70.62
2018-03-14T21:33:48.130Z,70.71
2018-03-14T21:36:17.272Z,70.56
2018-03-14T21:38:46.365Z,70.43
2018-03-14T21:41:15.995Z,70.27
2018-03-14T21:43:45.070Z,70.34
2018-03-14T21:46:14.491Z,70.11
2018-03-14T21:48:43.517Z,69.85
2018-03-14T21:51:12.581Z,69.96
2018-03-14T21:53:42.689Z,69.86
2018-03-14T21:56:15.128Z,69.57
2018-03-14T21:58:45.569Z,69.15
2018-03-14T22:01:16.505Z,68.65
2018-03-14T22:03:46.485Z,69.11
2018-03-14T22:06:28.420Z,68.55
2018-03-14T22:09:09.303Z,68.23
2018-03-14T22:11:39.493Z,68.10
2018-03-14T22:14:24.468Z,68.64
2018-03-14T22:16:59.500Z,68.24
2018-03-14T22:19:31.799Z,68.09
2018-03-14T22:22:00.894Z,68.21
2018-03-14T22:24:30.353Z,68.28
2018-03-14T22:27:00.312Z,68.50
2018-03-14T22:29:34.027Z,68.12
2018-03-14T22:32:06.607Z,68.17
2018-03-14T22:34:35.792Z,67.97
2018-03-14T22:37:04.862Z,67.78
2018-03-14T22:39:35.118Z,67.79
2018-03-14T22:42:04.514Z,67.90
2018-03-14T22:44:33.609Z,68.03
2018-03-14T22:47:02.649Z,68.05
2018-03-14T22:49:32.317Z,68.24
2018-03-14T22:52:01.689Z,68.50
2018-03-14T22:54:31.157Z,68.61
2018-03-14T22:57:00.762Z,68.78
2018-03-14T22:59:31.461Z,68.71
2018-03-14T23:02:00.543Z,68.79
2018-03-14T23:04:30.643Z,69.07
2018-03-14T23:06:59.688Z,69.29
2018-03-14T23:09:28.972Z,69.26
2018-03-14T23:11:58.157Z,69.20
2018-03-14T23:14:28.112Z,68.87
2018-03-14T23:16:57.611Z,68.86
2018-03-14T23:19:26.876Z,69.07
2018-03-14T23:21:55.929Z,69.02
2018-03-14T23:24:25.657Z,68.52
2018-03-14T23:26:54.720Z,69.07
2018-03-14T23:29:24.577Z,68.77
2018-03-14T23:31:54.596Z,68.60
2018-03-14T23:34:23.775Z,68.70
2018-03-14T23:36:53.580Z,68.57
2018-03-14T23:39:22.821Z,68.51
2018-03-14T23:41:52.152Z,68.53
2018-03-14T23:44:21.228Z,68.27
2018-03-14T23:46:50.753Z,68.50
2018-03-14T23:49:20.453Z,68.41
2018-03-14T23:51:49.789Z,68.41
2018-03-14T23:54:18.805Z,68.51
2018-03-14T23:56:54.181Z,68.84
2018-03-14T23:59:24.476Z,68.91
